sensor_id;sensor_type;location;lat;lon;timestamp;P1;durP1;ratioP1;P2;durP2;ratioP2
72408;SDS011;60402;48.082;11.628;2023-05-03T00:02:45;6.47;;;3.00;;
72408;SDS011;60402;48.082;11.628;2023-05-03T00:05:31;5.65;;;2.90;;
72408;SDS011;60402;48.082;11.628;2023-05-03T00:08:17;7.93;;;3.17;;
72408;SDS011;60402;48.082;11.628;2023-05-03T00:11:03;5.88;;;2.97;;
72408;SDS011;60402;48.082;11.628;2023-05-03T00:13:48;6.28;;;3.40;;
72408;SDS011;60402;48.082;11.628;2023-05-03T00:16:34;7.80;;;3.50;;
72408;SDS011;60402;48.082;11.628;2023-05-03T00:19:19;6.55;;;3.13;;
72408;SDS011;60402;48.082;11.628;2023-05-03T00:22:05;7.88;;;3.90;;
72408;SDS011;60402;48.082;11.628;2023-05-03T00:24:51;5.88;;;2.90;;
72408;SDS011;60402;48.082;11.628;2023-05-03T00:27:37;8.48;;;3.55;;
72408;SDS011;60402;48.082;11.628;2023-05-03T00:30:23;6.57;;;3.08;;
72408;SDS011;60402;48.082;11.628;2023-05-03T00:33:09;6.30;;;3.08;;
72408;SDS011;60402;48.082;11.628;2023-05-03T00:35:55;5.75;;;2.92;;
72408;SDS011;60402;48.082;11.628;2023-05-03T00:38:41;6.15;;;2.90;;
72408;SDS011;60402;48.082;11.628;2023-05-03T00:41:27;4.72;;;2.35;;
72408;SDS011;60402;48.082;11.628;2023-05-03T00:44:13;4.88;;;2.80;;
72408;SDS011;60402;48.082;11.628;2023-05-03T00:46:58;6.43;;;2.90;;
72408;SDS011;60402;48.082;11.628;2023-05-03T00:49:45;4.88;;;2.47;;
72408;SDS011;60402;48.082;11.628;2023-05-03T00:52:31;5.40;;;3.00;;
72408;SDS011;60402;48.082;11.628;2023-05-03T00:55:17;6.88;;;2.80;;
72408;SDS011;60402;48.082;11.628;2023-05-03T00:58:03;5.75;;;2.58;;
72408;SDS011;60402;48.082;11.628;2023-05-03T01:00:48;6.50;;;3.17;;
72408;SDS011;60402;48.082;11.628;2023-05-03T01:03:35;7.50;;;2.97;;
72408;SDS011;60402;48.082;11.628;2023-05-03T01:15:11;7.68;;;3.10;;
72408;SDS011;60402;48.082;11.628;2023-05-03T01:20:51;6.28;;;3.10;;
72408;SDS011;60402;48.082;11.628;2023-05-03T01:23:41;7.28;;;2.92;;
72408;SDS011;60402;48.082;11.628;2023-05-03T01:26:30;7.32;;;3.05;;
72408;SDS011;60402;48.082;11.628;2023-05-03T01:29:17;7.05;;;3.15;;
72408;SDS011;60402;48.082;11.628;2023-05-03T01:32:04;7.88;;;3.28;;
72408;SDS011;60402;48.082;11.628;2023-05-03T01:35:00;6.88;;;3.20;;
72408;SDS011;60402;48.082;11.628;2023-05-03T01:37:51;7.30;;;2.90;;
72408;SDS011;60402;48.082;11.628;2023-05-03T01:40:47;5.90;;;2.83;;
72408;SDS011;60402;48.082;11.628;2023-05-03T01:43:37;8.50;;;3.83;;
72408;SDS011;60402;48.082;11.628;2023-05-03T01:46:24;9.13;;;3.50;;
72408;SDS011;60402;48.082;11.628;2023-05-03T01:49:10;7.45;;;3.00;;
72408;SDS011;60402;48.082;11.628;2023-05-03T01:51:56;7.63;;;3.20;;
72408;SDS011;60402;48.082;11.628;2023-05-03T01:54:42;7.18;;;3.63;;
72408;SDS011;60402;48.082;11.628;2023-05-03T01:57:27;8.25;;;3.03;;
72408;SDS011;60402;48.082;11.628;2023-05-03T02:00:13;6.20;;;3.30;;
72408;SDS011;60402;48.082;11.628;2023-05-03T02:02:59;6.88;;;3.20;;
72408;SDS011;60402;48.082;11.628;2023-05-03T02:05:45;7.15;;;3.35;;
72408;SDS011;60402;48.082;11.628;2023-05-03T02:08:30;7.18;;;3.67;;
72408;SDS011;60402;48.082;11.628;2023-05-03T02:11:16;6.95;;;3.35;;
72408;SDS011;60402;48.082;11.628;2023-05-03T02:14:02;6.55;;;3.08;;
72408;SDS011;60402;48.082;11.628;2023-05-03T02:16:47;8.00;;;3.58;;
72408;SDS011;60402;48.082;11.628;2023-05-03T02:19:34;5.90;;;2.80;;
72408;SDS011;60402;48.082;11.628;2023-05-03T02:22:19;7.32;;;3.38;;
72408;SDS011;60402;48.082;11.628;2023-05-03T02:25:05;7.22;;;3.30;;
72408;SDS011;60402;48.082;11.628;2023-05-03T02:27:51;7.32;;;3.40;;
72408;SDS011;60402;48.082;11.628;2023-05-03T02:30:37;7.97;;;3.33;;
72408;SDS011;60402;48.082;11.628;2023-05-03T02:33:23;7.78;;;3.50;;
72408;SDS011;60402;48.082;11.628;2023-05-03T02:36:08;6.45;;;3.10;;
72408;SDS011;60402;48.082;11.628;2023-05-03T02:38:54;6.50;;;3.17;;
72408;SDS011;60402;48.082;11.628;2023-05-03T02:41:39;7.07;;;3.45;;
72408;SDS011;60402;48.082;11.628;2023-05-03T02:44:25;6.65;;;3.47;;
72408;SDS011;60402;48.082;11.628;2023-05-03T02:47:11;7.25;;;3.47;;
72408;SDS011;60402;48.082;11.628;2023-05-03T02:49:56;6.93;;;3.45;;
72408;SDS011;60402;48.082;11.628;2023-05-03T02:52:42;7.25;;;3.58;;
72408;SDS011;60402;48.082;11.628;2023-05-03T02:55:28;6.75;;;3.80;;
72408;SDS011;60402;48.082;11.628;2023-05-03T02:58:14;7.60;;;3.15;;
72408;SDS011;60402;48.082;11.628;2023-05-03T03:01:00;6.53;;;3.40;;
72408;SDS011;60402;48.082;11.628;2023-05-03T03:03:46;7.60;;;3.33;;
72408;SDS011;60402;48.082;11.628;2023-05-03T03:06:32;6.63;;;3.28;;
72408;SDS011;60402;48.082;11.628;2023-05-03T03:09:18;6.47;;;3.63;;
72408;SDS011;60402;48.082;11.628;2023-05-03T03:12:04;7.10;;;3.40;;
72408;SDS011;60402;48.082;11.628;2023-05-03T03:14:49;7.45;;;3.80;;
72408;SDS011;60402;48.082;11.628;2023-05-03T03:17:35;7.35;;;3.47;;
72408;SDS011;60402;48.082;11.628;2023-05-03T03:20:23;7.82;;;3.72;;
72408;SDS011;60402;48.082;11.628;2023-05-03T03:23:09;7.50;;;4.00;;
72408;SDS011;60402;48.082;11.628;2023-05-03T03:25:55;7.05;;;3.25;;
72408;SDS011;60402;48.082;11.628;2023-05-03T03:28:41;10.07;;;3.75;;
72408;SDS011;60402;48.082;11.628;2023-05-03T03:31:27;6.63;;;3.25;;
72408;SDS011;60402;48.082;11.628;2023-05-03T03:34:12;6.93;;;3.65;;
72408;SDS011;60402;48.082;11.628;2023-05-03T03:36:58;6.00;;;3.10;;
72408;SDS011;60402;48.082;11.628;2023-05-03T03:39:44;8.57;;;3.45;;
72408;SDS011;60402;48.082;11.628;2023-05-03T03:42:30;6.78;;;3.47;;
72408;SDS011;60402;48.082;11.628;2023-05-03T03:45:15;7.75;;;3.70;;
72408;SDS011;60402;48.082;11.628;2023-05-03T03:48:01;7.63;;;3.47;;
72408;SDS011;60402;48.082;11.628;2023-05-03T03:50:47;8.98;;;3.97;;
72408;SDS011;60402;48.082;11.628;2023-05-03T03:53:33;7.40;;;3.88;;
72408;SDS011;60402;48.082;11.628;2023-05-03T03:56:18;7.95;;;3.85;;
72408;SDS011;60402;48.082;11.628;2023-05-03T03:59:06;6.78;;;3.70;;
72408;SDS011;60402;48.082;11.628;2023-05-03T04:01:52;7.80;;;3.83;;
72408;SDS011;60402;48.082;11.628;2023-05-03T04:04:38;7.28;;;3.35;;
72408;SDS011;60402;48.082;11.628;2023-05-03T04:07:23;6.53;;;3.08;;
72408;SDS011;60402;48.082;11.628;2023-05-03T04:10:09;6.88;;;3.60;;
72408;SDS011;60402;48.082;11.628;2023-05-03T04:12:54;7.57;;;3.35;;
72408;SDS011;60402;48.082;11.628;2023-05-03T04:15:40;7.18;;;3.58;;
72408;SDS011;60402;48.082;11.628;2023-05-03T04:18:26;8.95;;;4.03;;
72408;SDS011;60402;48.082;11.628;2023-05-03T04:21:11;7.38;;;3.65;;
72408;SDS011;60402;48.082;11.628;2023-05-03T04:23:57;7.63;;;3.72;;
72408;SDS011;60402;48.082;11.628;2023-05-03T04:26:44;6.57;;;3.90;;
72408;SDS011;60402;48.082;11.628;2023-05-03T04:29:30;7.18;;;3.95;;
72408;SDS011;60402;48.082;11.628;2023-05-03T04:32:15;8.57;;;3.92;;
72408;SDS011;60402;48.082;11.628;2023-05-03T04:35:08;6.95;;;3.78;;
72408;SDS011;60402;48.082;11.628;2023-05-03T04:37:54;7.47;;;3.60;;
72408;SDS011;60402;48.082;11.628;2023-05-03T04:40:40;7.30;;;3.70;;
72408;SDS011;60402;48.082;11.628;2023-05-03T04:43:26;8.15;;;4.18;;
72408;SDS011;60402;48.082;11.628;2023-05-03T04:46:11;8.02;;;4.18;;
72408;SDS011;60402;48.082;11.628;2023-05-03T04:48:57;6.55;;;3.65;;
72408;SDS011;60402;48.082;11.628;2023-05-03T04:51:43;6.07;;;3.33;;
72408;SDS011;60402;48.082;11.628;2023-05-03T04:54:28;6.70;;;3.50;;
72408;SDS011;60402;48.082;11.628;2023-05-03T04:57:14;7.68;;;4.40;;
72408;SDS011;60402;48.082;11.628;2023-05-03T05:00:00;7.05;;;3.90;;
72408;SDS011;60402;48.082;11.628;2023-05-03T05:02:46;7.00;;;3.78;;
72408;SDS011;60402;48.082;11.628;2023-05-03T05:05:32;6.88;;;3.72;;
72408;SDS011;60402;48.082;11.628;2023-05-03T05:08:17;9.52;;;3.92;;
72408;SDS011;60402;48.082;11.628;2023-05-03T05:11:05;6.45;;;3.45;;
72408;SDS011;60402;48.082;11.628;2023-05-03T05:13:50;6.13;;;3.70;;
72408;SDS011;60402;48.082;11.628;2023-05-03T05:16:37;6.47;;;3.30;;
72408;SDS011;60402;48.082;11.628;2023-05-03T05:19:22;7.05;;;3.80;;
72408;SDS011;60402;48.082;11.628;2023-05-03T05:22:08;5.95;;;2.88;;
72408;SDS011;60402;48.082;11.628;2023-05-03T05:24:53;6.75;;;3.40;;
72408;SDS011;60402;48.082;11.628;2023-05-03T05:27:39;6.65;;;3.55;;
72408;SDS011;60402;48.082;11.628;2023-05-03T05:30:25;5.57;;;2.88;;
72408;SDS011;60402;48.082;11.628;2023-05-03T05:33:11;6.80;;;3.85;;
72408;SDS011;60402;48.082;11.628;2023-05-03T05:35:56;7.85;;;4.72;;
72408;SDS011;60402;48.082;11.628;2023-05-03T05:38:42;8.02;;;4.22;;
72408;SDS011;60402;48.082;11.628;2023-05-03T05:41:28;8.13;;;4.45;;
72408;SDS011;60402;48.082;11.628;2023-05-03T05:44:13;9.55;;;4.80;;
72408;SDS011;60402;48.082;11.628;2023-05-03T05:46:59;10.63;;;5.05;;
72408;SDS011;60402;48.082;11.628;2023-05-03T05:49:45;10.82;;;5.35;;
72408;SDS011;60402;48.082;11.628;2023-05-03T05:52:30;12.52;;;6.13;;
72408;SDS011;60402;48.082;11.628;2023-05-03T05:55:16;15.07;;;7.18;;
72408;SDS011;60402;48.082;11.628;2023-05-03T05:58:02;13.05;;;6.13;;
72408;SDS011;60402;48.082;11.628;2023-05-03T06:00:48;14.90;;;7.18;;
72408;SDS011;60402;48.082;11.628;2023-05-03T06:03:33;15.73;;;7.82;;
72408;SDS011;60402;48.082;11.628;2023-05-03T06:06:19;19.30;;;7.72;;
72408;SDS011;60402;48.082;11.628;2023-05-03T06:09:05;18.77;;;7.80;;
72408;SDS011;60402;48.082;11.628;2023-05-03T06:11:52;17.65;;;8.30;;
72408;SDS011;60402;48.082;11.628;2023-05-03T06:14:38;16.35;;;7.65;;
72408;SDS011;60402;48.082;11.628;2023-05-03T06:17:23;18.13;;;7.57;;
72408;SDS011;60402;48.082;11.628;2023-05-03T06:20:11;18.23;;;8.27;;
72408;SDS011;60402;48.082;11.628;2023-05-03T06:22:57;18.65;;;8.13;;
72408;SDS011;60402;48.082;11.628;2023-05-03T06:25:44;18.85;;;8.32;;
72408;SDS011;60402;48.082;11.628;2023-05-03T06:28:31;20.58;;;9.32;;
72408;SDS011;60402;48.082;11.628;2023-05-03T06:31:16;19.55;;;8.70;;
72408;SDS011;60402;48.082;11.628;2023-05-03T06:34:02;22.23;;;10.52;;
72408;SDS011;60402;48.082;11.628;2023-05-03T06:36:48;19.67;;;9.25;;
72408;SDS011;60402;48.082;11.628;2023-05-03T06:39:34;16.58;;;8.90;;
72408;SDS011;60402;48.082;11.628;2023-05-03T06:42:20;21.50;;;9.05;;
72408;SDS011;60402;48.082;11.628;2023-05-03T06:45:06;21.35;;;9.95;;
72408;SDS011;60402;48.082;11.628;2023-05-03T06:47:52;22.33;;;10.05;;
72408;SDS011;60402;48.082;11.628;2023-05-03T06:50:38;24.05;;;9.85;;
72408;SDS011;60402;48.082;11.628;2023-05-03T06:53:24;20.73;;;9.88;;
72408;SDS011;60402;48.082;11.628;2023-05-03T06:56:10;21.00;;;9.02;;
72408;SDS011;60402;48.082;11.628;2023-05-03T06:58:55;20.95;;;9.27;;
72408;SDS011;60402;48.082;11.628;2023-05-03T07:01:41;21.52;;;9.65;;
72408;SDS011;60402;48.082;11.628;2023-05-03T07:04:27;23.50;;;10.55;;
72408;SDS011;60402;48.082;11.628;2023-05-03T07:07:14;22.92;;;9.07;;
72408;SDS011;60402;48.082;11.628;2023-05-03T07:10:00;18.17;;;7.82;;
72408;SDS011;60402;48.082;11.628;2023-05-03T07:12:45;23.13;;;8.45;;
72408;SDS011;60402;48.082;11.628;2023-05-03T07:15:31;19.73;;;8.05;;
72408;SDS011;60402;48.082;11.628;2023-05-03T07:18:17;21.55;;;7.80;;
72408;SDS011;60402;48.082;11.628;2023-05-03T07:21:02;20.58;;;7.95;;
72408;SDS011;60402;48.082;11.628;2023-05-03T07:23:50;21.05;;;7.95;;
72408;SDS011;60402;48.082;11.628;2023-05-03T07:26:36;15.48;;;7.20;;
72408;SDS011;60402;48.082;11.628;2023-05-03T07:29:21;18.45;;;7.07;;
72408;SDS011;60402;48.082;11.628;2023-05-03T07:32:07;19.27;;;7.75;;
72408;SDS011;60402;48.082;11.628;2023-05-03T07:34:53;17.15;;;7.75;;
72408;SDS011;60402;48.082;11.628;2023-05-03T07:37:38;20.98;;;7.80;;
72408;SDS011;60402;48.082;11.628;2023-05-03T07:40:24;17.92;;;8.32;;
72408;SDS011;60402;48.082;11.628;2023-05-03T07:43:13;19.90;;;7.82;;
72408;SDS011;60402;48.082;11.628;2023-05-03T07:46:00;21.30;;;7.95;;
72408;SDS011;60402;48.082;11.628;2023-05-03T07:48:46;19.95;;;8.32;;
72408;SDS011;60402;48.082;11.628;2023-05-03T07:51:35;20.98;;;8.43;;
72408;SDS011;60402;48.082;11.628;2023-05-03T07:54:21;19.42;;;8.27;;
72408;SDS011;60402;48.082;11.628;2023-05-03T07:57:07;20.73;;;8.63;;
72408;SDS011;60402;48.082;11.628;2023-05-03T07:59:53;18.52;;;8.23;;
72408;SDS011;60402;48.082;11.628;2023-05-03T08:02:38;16.45;;;7.47;;
72408;SDS011;60402;48.082;11.628;2023-05-03T08:05:24;15.57;;;7.88;;
72408;SDS011;60402;48.082;11.628;2023-05-03T08:08:10;17.95;;;8.20;;
72408;SDS011;60402;48.082;11.628;2023-05-03T08:10:58;17.55;;;7.90;;
72408;SDS011;60402;48.082;11.628;2023-05-03T08:13:44;20.52;;;8.57;;
72408;SDS011;60402;48.082;11.628;2023-05-03T08:16:29;22.98;;;9.10;;
72408;SDS011;60402;48.082;11.628;2023-05-03T08:19:15;17.33;;;7.90;;
72408;SDS011;60402;48.082;11.628;2023-05-03T08:22:01;19.23;;;8.57;;
72408;SDS011;60402;48.082;11.628;2023-05-03T08:24:47;19.15;;;7.78;;
72408;SDS011;60402;48.082;11.628;2023-05-03T08:27:34;17.13;;;8.70;;
72408;SDS011;60402;48.082;11.628;2023-05-03T08:30:21;17.70;;;8.57;;
72408;SDS011;60402;48.082;11.628;2023-05-03T08:33:07;19.85;;;9.57;;
72408;SDS011;60402;48.082;11.628;2023-05-03T08:35:56;18.27;;;8.77;;
72408;SDS011;60402;48.082;11.628;2023-05-03T08:38:41;18.52;;;8.18;;
72408;SDS011;60402;48.082;11.628;2023-05-03T08:41:28;17.60;;;8.02;;
72408;SDS011;60402;48.082;11.628;2023-05-03T08:44:16;21.95;;;8.98;;
72408;SDS011;60402;48.082;11.628;2023-05-03T08:47:07;16.45;;;8.15;;
72408;SDS011;60402;48.082;11.628;2023-05-03T08:49:53;15.10;;;7.10;;
72408;SDS011;60402;48.082;11.628;2023-05-03T08:52:42;18.45;;;8.68;;
72408;SDS011;60402;48.082;11.628;2023-05-03T08:55:28;15.70;;;8.00;;
72408;SDS011;60402;48.082;11.628;2023-05-03T08:58:14;16.52;;;8.68;;
72408;SDS011;60402;48.082;11.628;2023-05-03T09:01:06;15.52;;;7.38;;
72408;SDS011;60402;48.082;11.628;2023-05-03T09:03:52;15.82;;;8.30;;
72408;SDS011;60402;48.082;11.628;2023-05-03T09:06:38;15.50;;;7.72;;
72408;SDS011;60402;48.082;11.628;2023-05-03T09:09:30;14.68;;;7.25;;
72408;SDS011;60402;48.082;11.628;2023-05-03T09:12:32;14.85;;;7.57;;
72408;SDS011;60402;48.082;11.628;2023-05-03T09:15:20;14.25;;;7.38;;
72408;SDS011;60402;48.082;11.628;2023-05-03T09:21:17;14.88;;;7.63;;
72408;SDS011;60402;48.082;11.628;2023-05-03T09:24:13;11.70;;;6.82;;
72408;SDS011;60402;48.082;11.628;2023-05-03T09:26:59;12.80;;;6.15;;
72408;SDS011;60402;48.082;11.628;2023-05-03T09:29:47;12.98;;;6.60;;
72408;SDS011;60402;48.082;11.628;2023-05-03T09:32:45;11.43;;;6.63;;
72408;SDS011;60402;48.082;11.628;2023-05-03T09:35:33;13.05;;;6.88;;
72408;SDS011;60402;48.082;11.628;2023-05-03T09:38:25;11.63;;;6.68;;
72408;SDS011;60402;48.082;11.628;2023-05-03T09:41:12;13.10;;;7.00;;
72408;SDS011;60402;48.082;11.628;2023-05-03T09:43:58;13.05;;;6.50;;
72408;SDS011;60402;48.082;11.628;2023-05-03T09:47:03;11.38;;;6.05;;
72408;SDS011;60402;48.082;11.628;2023-05-03T09:49:49;11.85;;;6.75;;
72408;SDS011;60402;48.082;11.628;2023-05-03T09:52:34;13.05;;;7.15;;
72408;SDS011;60402;48.082;11.628;2023-05-03T09:55:22;12.60;;;7.63;;
72408;SDS011;60402;48.082;11.628;2023-05-03T09:58:08;12.23;;;7.45;;
72408;SDS011;60402;48.082;11.628;2023-05-03T10:00:54;11.32;;;6.90;;
72408;SDS011;60402;48.082;11.628;2023-05-03T10:03:42;13.63;;;7.40;;
72408;SDS011;60402;48.082;11.628;2023-05-03T10:09:17;12.63;;;7.05;;
72408;SDS011;60402;48.082;11.628;2023-05-03T10:12:08;13.60;;;7.88;;
72408;SDS011;60402;48.082;11.628;2023-05-03T10:15:02;14.18;;;7.20;;
72408;SDS011;60402;48.082;11.628;2023-05-03T10:17:51;12.55;;;7.10;;
72408;SDS011;60402;48.082;11.628;2023-05-03T10:20:49;13.85;;;7.40;;
72408;SDS011;60402;48.082;11.628;2023-05-03T10:26:59;11.07;;;6.50;;
72408;SDS011;60402;48.082;11.628;2023-05-03T10:29:45;13.25;;;7.60;;
72408;SDS011;60402;48.082;11.628;2023-05-03T10:32:33;16.10;;;7.70;;
72408;SDS011;60402;48.082;11.628;2023-05-03T10:35:20;15.65;;;8.02;;
72408;SDS011;60402;48.082;11.628;2023-05-03T10:38:14;16.48;;;8.32;;
72408;SDS011;60402;48.082;11.628;2023-05-03T10:41:01;14.35;;;8.20;;
72408;SDS011;60402;48.082;11.628;2023-05-03T10:43:48;14.48;;;8.43;;
72408;SDS011;60402;48.082;11.628;2023-05-03T10:46:33;14.60;;;8.27;;
72408;SDS011;60402;48.082;11.628;2023-05-03T10:49:20;16.70;;;8.43;;
72408;SDS011;60402;48.082;11.628;2023-05-03T10:52:43;15.77;;;8.15;;
72408;SDS011;60402;48.082;11.628;2023-05-03T10:55:24;14.90;;;8.32;;
72408;SDS011;60402;48.082;11.628;2023-05-03T10:58:10;15.43;;;8.35;;
72408;SDS011;60402;48.082;11.628;2023-05-03T11:00:59;15.52;;;8.60;;
72408;SDS011;60402;48.082;11.628;2023-05-03T11:06:48;19.45;;;10.13;;
72408;SDS011;60402;48.082;11.628;2023-05-03T11:09:36;19.75;;;10.13;;
72408;SDS011;60402;48.082;11.628;2023-05-03T11:12:21;18.55;;;9.73;;
72408;SDS011;60402;48.082;11.628;2023-05-03T11:15:07;19.05;;;9.85;;
72408;SDS011;60402;48.082;11.628;2023-05-03T11:17:55;19.73;;;9.90;;
72408;SDS011;60402;48.082;11.628;2023-05-03T11:20:41;19.30;;;10.45;;
72408;SDS011;60402;48.082;11.628;2023-05-03T11:23:27;23.10;;;11.35;;
72408;SDS011;60402;48.082;11.628;2023-05-03T11:26:14;19.77;;;10.65;;
72408;SDS011;60402;48.082;11.628;2023-05-03T11:29:00;22.05;;;11.18;;
72408;SDS011;60402;48.082;11.628;2023-05-03T11:31:45;18.05;;;10.13;;
72408;SDS011;60402;48.082;11.628;2023-05-03T11:34:31;19.30;;;10.02;;
72408;SDS011;60402;48.082;11.628;2023-05-03T11:37:17;17.23;;;9.60;;
72408;SDS011;60402;48.082;11.628;2023-05-03T11:40:03;21.13;;;10.73;;
72408;SDS011;60402;48.082;11.628;2023-05-03T11:42:50;23.27;;;12.07;;
72408;SDS011;60402;48.082;11.628;2023-05-03T11:45:45;18.42;;;10.07;;
72408;SDS011;60402;48.082;11.628;2023-05-03T11:48:32;15.30;;;8.50;;
72408;SDS011;60402;48.082;11.628;2023-05-03T11:51:21;16.60;;;8.77;;
72408;SDS011;60402;48.082;11.628;2023-05-03T11:54:08;20.08;;;10.65;;
72408;SDS011;60402;48.082;11.628;2023-05-03T11:56:54;19.27;;;10.15;;
72408;SDS011;60402;48.082;11.628;2023-05-03T11:59:42;18.70;;;10.38;;
72408;SDS011;60402;48.082;11.628;2023-05-03T12:02:29;17.85;;;9.18;;
72408;SDS011;60402;48.082;11.628;2023-05-03T12:05:15;17.05;;;9.07;;
72408;SDS011;60402;48.082;11.628;2023-05-03T12:08:01;14.90;;;8.20;;
72408;SDS011;60402;48.082;11.628;2023-05-03T12:10:47;15.75;;;8.75;;
72408;SDS011;60402;48.082;11.628;2023-05-03T12:13:35;15.60;;;7.75;;
72408;SDS011;60402;48.082;11.628;2023-05-03T12:16:21;15.73;;;8.77;;
72408;SDS011;60402;48.082;11.628;2023-05-03T12:19:07;17.63;;;8.65;;
72408;SDS011;60402;48.082;11.628;2023-05-03T12:21:53;15.35;;;8.48;;
72408;SDS011;60402;48.082;11.628;2023-05-03T12:24:38;18.20;;;10.13;;
72408;SDS011;60402;48.082;11.628;2023-05-03T12:27:25;18.85;;;9.70;;
72408;SDS011;60402;48.082;11.628;2023-05-03T12:30:11;15.27;;;9.65;;
72408;SDS011;60402;48.082;11.628;2023-05-03T12:32:57;16.27;;;8.85;;
72408;SDS011;60402;48.082;11.628;2023-05-03T12:35:42;17.05;;;9.18;;
72408;SDS011;60402;48.082;11.628;2023-05-03T12:38:29;17.38;;;8.52;;
72408;SDS011;60402;48.082;11.628;2023-05-03T12:41:14;15.30;;;8.93;;
72408;SDS011;60402;48.082;11.628;2023-05-03T12:44:00;15.57;;;8.63;;
72408;SDS011;60402;48.082;11.628;2023-05-03T12:46:46;15.00;;;8.30;;
72408;SDS011;60402;48.082;11.628;2023-05-03T12:49:34;17.02;;;7.80;;
72408;SDS011;60402;48.082;11.628;2023-05-03T12:52:20;16.60;;;7.57;;
72408;SDS011;60402;48.082;11.628;2023-05-03T12:55:06;16.13;;;8.43;;
72408;SDS011;60402;48.082;11.628;2023-05-03T12:57:52;12.32;;;7.72;;
72408;SDS011;60402;48.082;11.628;2023-05-03T13:00:38;14.15;;;8.50;;
72408;SDS011;60402;48.082;11.628;2023-05-03T13:03:23;17.05;;;8.88;;
72408;SDS011;60402;48.082;11.628;2023-05-03T13:06:10;12.88;;;7.55;;
72408;SDS011;60402;48.082;11.628;2023-05-03T13:08:56;10.25;;;5.88;;
72408;SDS011;60402;48.082;11.628;2023-05-03T13:11:41;9.20;;;5.72;;
72408;SDS011;60402;48.082;11.628;2023-05-03T13:14:28;11.00;;;5.45;;
72408;SDS011;60402;48.082;11.628;2023-05-03T13:17:14;10.50;;;5.93;;
72408;SDS011;60402;48.082;11.628;2023-05-03T13:20:00;12.05;;;7.80;;
72408;SDS011;60402;48.082;11.628;2023-05-03T13:22:46;12.02;;;6.72;;
72408;SDS011;60402;48.082;11.628;2023-05-03T13:25:33;9.95;;;6.07;;
72408;SDS011;60402;48.082;11.628;2023-05-03T13:28:19;9.10;;;5.20;;
72408;SDS011;60402;48.082;11.628;2023-05-03T13:31:09;9.23;;;5.65;;
72408;SDS011;60402;48.082;11.628;2023-05-03T13:33:55;11.07;;;5.90;;
72408;SDS011;60402;48.082;11.628;2023-05-03T13:36:41;10.02;;;5.65;;
72408;SDS011;60402;48.082;11.628;2023-05-03T13:39:27;8.35;;;5.60;;
72408;SDS011;60402;48.082;11.628;2023-05-03T13:42:12;9.32;;;5.45;;
72408;SDS011;60402;48.082;11.628;2023-05-03T13:44:58;10.10;;;5.75;;
72408;SDS011;60402;48.082;11.628;2023-05-03T13:47:44;9.70;;;6.18;;
72408;SDS011;60402;48.082;11.628;2023-05-03T13:50:30;9.40;;;5.28;;
72408;SDS011;60402;48.082;11.628;2023-05-03T13:53:15;8.15;;;4.80;;
72408;SDS011;60402;48.082;11.628;2023-05-03T13:56:03;10.57;;;5.70;;
72408;SDS011;60402;48.082;11.628;2023-05-03T13:58:50;9.68;;;5.75;;
72408;SDS011;60402;48.082;11.628;2023-05-03T14:01:35;9.02;;;5.55;;
72408;SDS011;60402;48.082;11.628;2023-05-03T14:04:22;13.18;;;7.28;;
72408;SDS011;60402;48.082;11.628;2023-05-03T14:07:09;10.77;;;6.72;;
72408;SDS011;60402;48.082;11.628;2023-05-03T14:09:55;10.55;;;6.60;;
72408;SDS011;60402;48.082;11.628;2023-05-03T14:12:41;10.93;;;6.97;;
72408;SDS011;60402;48.082;11.628;2023-05-03T14:15:29;12.25;;;6.65;;
72408;SDS011;60402;48.082;11.628;2023-05-03T14:18:15;9.18;;;5.88;;
72408;SDS011;60402;48.082;11.628;2023-05-03T14:21:00;10.10;;;5.63;;
72408;SDS011;60402;48.082;11.628;2023-05-03T14:23:46;9.90;;;5.80;;
72408;SDS011;60402;48.082;11.628;2023-05-03T14:26:34;10.57;;;6.25;;
72408;SDS011;60402;48.082;11.628;2023-05-03T14:29:21;9.45;;;5.80;;
72408;SDS011;60402;48.082;11.628;2023-05-03T14:32:07;11.10;;;5.78;;
72408;SDS011;60402;48.082;11.628;2023-05-03T14:34:54;9.10;;;5.57;;
72408;SDS011;60402;48.082;11.628;2023-05-03T14:37:40;9.00;;;5.63;;
72408;SDS011;60402;48.082;11.628;2023-05-03T14:40:26;10.60;;;5.78;;
72408;SDS011;60402;48.082;11.628;2023-05-03T14:43:12;11.00;;;6.32;;
72408;SDS011;60402;48.082;11.628;2023-05-03T14:45:59;10.80;;;5.90;;
72408;SDS011;60402;48.082;11.628;2023-05-03T14:48:46;10.02;;;5.90;;
72408;SDS011;60402;48.082;11.628;2023-05-03T14:51:31;10.70;;;6.10;;
72408;SDS011;60402;48.082;11.628;2023-05-03T14:54:17;10.85;;;5.60;;
72408;SDS011;60402;48.082;11.628;2023-05-03T14:57:04;9.60;;;5.75;;
72408;SDS011;60402;48.082;11.628;2023-05-03T14:59:49;9.00;;;5.63;;
72408;SDS011;60402;48.082;11.628;2023-05-03T15:02:35;8.90;;;5.50;;
72408;SDS011;60402;48.082;11.628;2023-05-03T15:05:20;8.25;;;5.55;;
72408;SDS011;60402;48.082;11.628;2023-05-03T15:08:06;7.57;;;4.82;;
72408;SDS011;60402;48.082;11.628;2023-05-03T15:10:52;9.23;;;5.60;;
72408;SDS011;60402;48.082;11.628;2023-05-03T15:13:38;10.18;;;4.70;;
72408;SDS011;60402;48.082;11.628;2023-05-03T15:16:23;7.03;;;4.53;;
72408;SDS011;60402;48.082;11.628;2023-05-03T15:19:09;8.27;;;4.72;;
72408;SDS011;60402;48.082;11.628;2023-05-03T15:21:55;8.63;;;5.40;;
72408;SDS011;60402;48.082;11.628;2023-05-03T15:24:41;9.25;;;4.90;;
72408;SDS011;60402;48.082;11.628;2023-05-03T15:27:26;8.85;;;5.75;;
72408;SDS011;60402;48.082;11.628;2023-05-03T15:30:12;8.38;;;5.50;;
72408;SDS011;60402;48.082;11.628;2023-05-03T15:32:59;9.52;;;5.50;;
72408;SDS011;60402;48.082;11.628;2023-05-03T15:35:46;8.43;;;5.28;;
72408;SDS011;60402;48.082;11.628;2023-05-03T15:38:31;8.13;;;4.97;;
72408;SDS011;60402;48.082;11.628;2023-05-03T15:41:17;8.40;;;5.78;;
72408;SDS011;60402;48.082;11.628;2023-05-03T15:44:03;11.68;;;6.97;;
72408;SDS011;60402;48.082;11.628;2023-05-03T15:49:37;12.73;;;6.38;;
72408;SDS011;60402;48.082;11.628;2023-05-03T15:52:22;12.68;;;7.25;;
72408;SDS011;60402;48.082;11.628;2023-05-03T15:55:08;10.98;;;6.60;;
72408;SDS011;60402;48.082;11.628;2023-05-03T15:57:54;14.50;;;8.63;;
72408;SDS011;60402;48.082;11.628;2023-05-03T16:00:41;9.07;;;4.80;;
72408;SDS011;60402;48.082;11.628;2023-05-03T16:03:27;9.05;;;5.43;;
72408;SDS011;60402;48.082;11.628;2023-05-03T16:06:16;7.95;;;4.78;;
72408;SDS011;60402;48.082;11.628;2023-05-03T16:09:02;8.45;;;5.18;;
72408;SDS011;60402;48.082;11.628;2023-05-03T16:11:49;7.95;;;5.07;;
72408;SDS011;60402;48.082;11.628;2023-05-03T16:14:35;7.38;;;5.05;;
72408;SDS011;60402;48.082;11.628;2023-05-03T16:17:20;10.70;;;5.70;;
72408;SDS011;60402;48.082;11.628;2023-05-03T16:20:06;8.65;;;5.53;;
72408;SDS011;60402;48.082;11.628;2023-05-03T16:22:55;10.30;;;5.80;;
72408;SDS011;60402;48.082;11.628;2023-05-03T16:25:40;8.30;;;5.05;;
72408;SDS011;60402;48.082;11.628;2023-05-03T16:28:26;9.20;;;5.80;;
72408;SDS011;60402;48.082;11.628;2023-05-03T16:31:12;8.88;;;5.55;;
72408;SDS011;60402;48.082;11.628;2023-05-03T16:33:58;8.00;;;4.75;;
72408;SDS011;60402;48.082;11.628;2023-05-03T16:36:43;9.05;;;5.32;;
72408;SDS011;60402;48.082;11.628;2023-05-03T16:39:29;8.45;;;4.95;;
72408;SDS011;60402;48.082;11.628;2023-05-03T16:42:16;10.18;;;5.22;;
72408;SDS011;60402;48.082;11.628;2023-05-03T16:45:02;8.65;;;5.18;;
72408;SDS011;60402;48.082;11.628;2023-05-03T16:47:48;10.48;;;4.57;;